Terminal Aerodrome Forecast
Issued by NWS

Current Version | Previous Version | Text Only | Print | Product List | Glossary On
Versions: 1 2 3 4 5 6 7 8 9 10 11 12 13 14 15 16 17 18 19 20 21
000
FTUS45 KTFX 231700
TAFBZN
TAF
KBZN 231739Z 2318/2418 30010KT P6SM OVC045
      TEMPO 2319/2323 6SM -SHRA BKN025
     FM240200 VRB06KT 5SM -RA BR OVC022
     FM241600 VRB06KT P6SM VCSH OVC040=

USA.gov is the U.S. government's official web portal to all federal, state and local government web resources and services.